sensor_id;sensor_type;location;lat;lon;timestamp;temperature;humidity
9179;DHT22;71287;48.414;11.478;2023-08-21T00:01:29;21.50;99.90
9179;DHT22;71287;48.414;11.478;2023-08-21T00:03:55;21.50;99.90
9179;DHT22;71287;48.414;11.478;2023-08-21T00:06:22;21.50;99.90
9179;DHT22;71287;48.414;11.478;2023-08-21T00:08:49;21.50;99.90
9179;DHT22;71287;48.414;11.478;2023-08-21T00:11:16;21.50;99.90
9179;DHT22;71287;48.414;11.478;2023-08-21T00:13:43;21.50;99.90
9179;DHT22;71287;48.414;11.478;2023-08-21T00:16:11;21.50;99.90
9179;DHT22;71287;48.414;11.478;2023-08-21T00:18:38;21.50;99.90
9179;DHT22;71287;48.414;11.478;2023-08-21T00:21:05;21.40;99.90
9179;DHT22;71287;48.414;11.478;2023-08-21T00:23:32;21.40;99.90
9179;DHT22;71287;48.414;11.478;2023-08-21T00:25:59;21.40;99.90
9179;DHT22;71287;48.414;11.478;2023-08-21T00:28:25;21.40;99.90
9179;DHT22;71287;48.414;11.478;2023-08-21T00:31:00;21.30;99.90
9179;DHT22;71287;48.414;11.478;2023-08-21T00:33:29;21.30;99.90
9179;DHT22;71287;48.414;11.478;2023-08-21T00:35:56;21.30;99.90
9179;DHT22;71287;48.414;11.478;2023-08-21T00:38:22;21.30;99.90
9179;DHT22;71287;48.414;11.478;2023-08-21T00:40:49;21.20;99.90
9179;DHT22;71287;48.414;11.478;2023-08-21T00:43:16;21.30;99.90
9179;DHT22;71287;48.414;11.478;2023-08-21T00:45:45;21.30;99.90
9179;DHT22;71287;48.414;11.478;2023-08-21T00:48:13;21.30;99.90
9179;DHT22;71287;48.414;11.478;2023-08-21T00:50:42;21.30;99.90
9179;DHT22;71287;48.414;11.478;2023-08-21T00:53:10;21.30;99.90
9179;DHT22;71287;48.414;11.478;2023-08-21T00:55:37;21.20;99.90
9179;DHT22;71287;48.414;11.478;2023-08-21T00:58:05;21.20;99.90
9179;DHT22;71287;48.414;11.478;2023-08-21T01:00:33;21.20;99.90
9179;DHT22;71287;48.414;11.478;2023-08-21T01:03:00;21.10;99.90
9179;DHT22;71287;48.414;11.478;2023-08-21T01:05:28;21.10;99.90
9179;DHT22;71287;48.414;11.478;2023-08-21T01:08:01;21.00;99.90
9179;DHT22;71287;48.414;11.478;2023-08-21T01:10:36;21.00;99.90
9179;DHT22;71287;48.414;11.478;2023-08-21T01:13:09;21.00;99.90
9179;DHT22;71287;48.414;11.478;2023-08-21T01:15:38;21.00;99.90
9179;DHT22;71287;48.414;11.478;2023-08-21T01:18:07;21.00;99.90
9179;DHT22;71287;48.414;11.478;2023-08-21T01:20:35;20.90;99.90
9179;DHT22;71287;48.414;11.478;2023-08-21T01:23:05;20.90;99.90
9179;DHT22;71287;48.414;11.478;2023-08-21T01:25:33;20.80;99.90
9179;DHT22;71287;48.414;11.478;2023-08-21T01:28:01;20.80;99.90
9179;DHT22;71287;48.414;11.478;2023-08-21T01:30:31;20.80;99.90
9179;DHT22;71287;48.414;11.478;2023-08-21T01:33:00;20.70;99.90
9179;DHT22;71287;48.414;11.478;2023-08-21T01:35:29;20.70;99.90
9179;DHT22;71287;48.414;11.478;2023-08-21T01:37:56;20.70;99.90
9179;DHT22;71287;48.414;11.478;2023-08-21T01:40:24;20.60;99.90
9179;DHT22;71287;48.414;11.478;2023-08-21T01:42:54;20.60;99.90
9179;DHT22;71287;48.414;11.478;2023-08-21T01:45:20;20.60;99.90
9179;DHT22;71287;48.414;11.478;2023-08-21T01:47:47;20.60;99.90
9179;DHT22;71287;48.414;11.478;2023-08-21T01:50:14;20.60;99.90
9179;DHT22;71287;48.414;11.478;2023-08-21T01:52:41;20.60;99.90
9179;DHT22;71287;48.414;11.478;2023-08-21T01:55:08;20.60;99.90
9179;DHT22;71287;48.414;11.478;2023-08-21T01:57:35;20.60;99.90
9179;DHT22;71287;48.414;11.478;2023-08-21T02:00:05;20.50;99.90
9179;DHT22;71287;48.414;11.478;2023-08-21T02:02:32;20.50;99.90
9179;DHT22;71287;48.414;11.478;2023-08-21T02:04:59;20.50;99.90
9179;DHT22;71287;48.414;11.478;2023-08-21T02:07:25;20.40;99.90
9179;DHT22;71287;48.414;11.478;2023-08-21T02:09:52;20.40;99.90
9179;DHT22;71287;48.414;11.478;2023-08-21T02:12:19;20.40;99.90
9179;DHT22;71287;48.414;11.478;2023-08-21T02:14:46;20.40;99.90
9179;DHT22;71287;48.414;11.478;2023-08-21T02:17:14;20.30;99.90
9179;DHT22;71287;48.414;11.478;2023-08-21T02:19:41;20.30;99.90
9179;DHT22;71287;48.414;11.478;2023-08-21T02:22:07;20.30;99.90
9179;DHT22;71287;48.414;11.478;2023-08-21T02:24:34;20.30;99.90
9179;DHT22;71287;48.414;11.478;2023-08-21T02:27:01;20.20;99.90
9179;DHT22;71287;48.414;11.478;2023-08-21T02:29:28;20.20;99.90
9179;DHT22;71287;48.414;11.478;2023-08-21T02:31:55;20.20;99.90
9179;DHT22;71287;48.414;11.478;2023-08-21T02:34:23;20.20;99.90
9179;DHT22;71287;48.414;11.478;2023-08-21T02:36:50;20.10;99.90
9179;DHT22;71287;48.414;11.478;2023-08-21T02:39:17;20.10;99.90
9179;DHT22;71287;48.414;11.478;2023-08-21T02:41:43;20.10;99.90
9179;DHT22;71287;48.414;11.478;2023-08-21T02:44:10;20.00;99.90
9179;DHT22;71287;48.414;11.478;2023-08-21T02:46:37;20.00;99.90
9179;DHT22;71287;48.414;11.478;2023-08-21T02:49:04;19.90;99.90
9179;DHT22;71287;48.414;11.478;2023-08-21T02:51:32;19.90;99.90
9179;DHT22;71287;48.414;11.478;2023-08-21T02:53:58;19.90;99.90
9179;DHT22;71287;48.414;11.478;2023-08-21T02:56:25;19.80;99.90
9179;DHT22;71287;48.414;11.478;2023-08-21T02:58:52;19.80;99.90
9179;DHT22;71287;48.414;11.478;2023-08-21T03:01:19;19.70;99.90
9179;DHT22;71287;48.414;11.478;2023-08-21T03:03:46;19.60;99.90
9179;DHT22;71287;48.414;11.478;2023-08-21T03:06:13;19.60;99.90
9179;DHT22;71287;48.414;11.478;2023-08-21T03:08:43;19.50;99.90
9179;DHT22;71287;48.414;11.478;2023-08-21T03:11:10;19.50;99.90
9179;DHT22;71287;48.414;11.478;2023-08-21T03:13:37;19.40;99.90
9179;DHT22;71287;48.414;11.478;2023-08-21T03:16:04;19.30;99.90
9179;DHT22;71287;48.414;11.478;2023-08-21T03:18:31;19.40;99.90
9179;DHT22;71287;48.414;11.478;2023-08-21T03:20:58;19.30;99.90
9179;DHT22;71287;48.414;11.478;2023-08-21T03:23:25;19.40;99.90
9179;DHT22;71287;48.414;11.478;2023-08-21T03:25:53;19.30;99.90
9179;DHT22;71287;48.414;11.478;2023-08-21T03:28:20;19.30;99.90
9179;DHT22;71287;48.414;11.478;2023-08-21T03:30:47;19.40;99.90
9179;DHT22;71287;48.414;11.478;2023-08-21T03:33:13;19.40;99.90
9179;DHT22;71287;48.414;11.478;2023-08-21T03:35:40;19.30;99.90
9179;DHT22;71287;48.414;11.478;2023-08-21T03:38:07;19.30;99.90
9179;DHT22;71287;48.414;11.478;2023-08-21T03:40:34;19.30;99.90
9179;DHT22;71287;48.414;11.478;2023-08-21T03:43:02;19.30;99.90
9179;DHT22;71287;48.414;11.478;2023-08-21T03:45:29;19.30;99.90
9179;DHT22;71287;48.414;11.478;2023-08-21T03:47:56;19.40;99.90
9179;DHT22;71287;48.414;11.478;2023-08-21T03:50:22;19.30;99.90
9179;DHT22;71287;48.414;11.478;2023-08-21T03:52:49;19.30;99.90
9179;DHT22;71287;48.414;11.478;2023-08-21T03:55:17;19.30;99.90
9179;DHT22;71287;48.414;11.478;2023-08-21T03:57:44;19.20;99.90
9179;DHT22;71287;48.414;11.478;2023-08-21T04:00:13;19.20;99.90
9179;DHT22;71287;48.414;11.478;2023-08-21T04:02:40;19.10;99.90
9179;DHT22;71287;48.414;11.478;2023-08-21T04:05:08;19.10;99.90
9179;DHT22;71287;48.414;11.478;2023-08-21T04:07:36;19.00;99.90
9179;DHT22;71287;48.414;11.478;2023-08-21T04:10:03;18.90;99.90
9179;DHT22;71287;48.414;11.478;2023-08-21T04:12:30;18.90;99.90
9179;DHT22;71287;48.414;11.478;2023-08-21T04:14:56;18.90;99.90
9179;DHT22;71287;48.414;11.478;2023-08-21T04:17:24;18.80;99.90
9179;DHT22;71287;48.414;11.478;2023-08-21T04:19:51;18.80;99.90
9179;DHT22;71287;48.414;11.478;2023-08-21T04:22:18;18.80;99.90
9179;DHT22;71287;48.414;11.478;2023-08-21T04:24:45;18.80;99.90
9179;DHT22;71287;48.414;11.478;2023-08-21T04:27:12;18.80;99.90
9179;DHT22;71287;48.414;11.478;2023-08-21T04:29:39;18.90;99.90
9179;DHT22;71287;48.414;11.478;2023-08-21T04:32:06;18.80;99.90
9179;DHT22;71287;48.414;11.478;2023-08-21T04:34:34;18.90;99.90
9179;DHT22;71287;48.414;11.478;2023-08-21T04:37:01;18.90;99.90
9179;DHT22;71287;48.414;11.478;2023-08-21T04:39:28;18.90;99.90
9179;DHT22;71287;48.414;11.478;2023-08-21T04:41:55;18.90;99.90
9179;DHT22;71287;48.414;11.478;2023-08-21T04:44:22;18.90;99.90
9179;DHT22;71287;48.414;11.478;2023-08-21T04:46:49;18.90;99.90
9179;DHT22;71287;48.414;11.478;2023-08-21T04:49:16;18.90;99.90
9179;DHT22;71287;48.414;11.478;2023-08-21T04:51:44;19.00;99.90
9179;DHT22;71287;48.414;11.478;2023-08-21T04:54:11;19.00;99.90
9179;DHT22;71287;48.414;11.478;2023-08-21T04:56:38;19.10;99.90
9179;DHT22;71287;48.414;11.478;2023-08-21T04:59:04;19.10;99.90
9179;DHT22;71287;48.414;11.478;2023-08-21T05:01:31;19.30;99.90
9179;DHT22;71287;48.414;11.478;2023-08-21T05:03:58;19.50;99.90
9179;DHT22;71287;48.414;11.478;2023-08-21T05:06:25;19.80;99.90
9179;DHT22;71287;48.414;11.478;2023-08-21T05:08:53;20.20;99.90
9179;DHT22;71287;48.414;11.478;2023-08-21T05:11:19;20.80;99.90
9179;DHT22;71287;48.414;11.478;2023-08-21T05:13:46;21.50;99.90
9179;DHT22;71287;48.414;11.478;2023-08-21T05:16:13;22.20;99.90
9179;DHT22;71287;48.414;11.478;2023-08-21T05:18:40;23.00;99.90
9179;DHT22;71287;48.414;11.478;2023-08-21T05:21:07;23.70;99.90
9179;DHT22;71287;48.414;11.478;2023-08-21T05:23:34;24.40;99.90
9179;DHT22;71287;48.414;11.478;2023-08-21T05:26:02;25.00;99.90
9179;DHT22;71287;48.414;11.478;2023-08-21T05:28:29;25.70;99.90
9179;DHT22;71287;48.414;11.478;2023-08-21T05:30:57;26.40;99.90
9179;DHT22;71287;48.414;11.478;2023-08-21T05:33:24;27.00;99.90
9179;DHT22;71287;48.414;11.478;2023-08-21T05:35:51;27.50;99.90
9179;DHT22;71287;48.414;11.478;2023-08-21T05:38:19;28.10;99.90
9179;DHT22;71287;48.414;11.478;2023-08-21T05:40:45;28.70;99.90
9179;DHT22;71287;48.414;11.478;2023-08-21T05:43:16;29.30;99.30
9179;DHT22;71287;48.414;11.478;2023-08-21T05:45:43;29.80;97.80
9179;DHT22;71287;48.414;11.478;2023-08-21T05:48:09;30.40;96.20
9179;DHT22;71287;48.414;11.478;2023-08-21T05:50:36;30.90;94.30
9179;DHT22;71287;48.414;11.478;2023-08-21T05:53:03;31.30;92.80
9179;DHT22;71287;48.414;11.478;2023-08-21T05:55:30;31.90;91.10
9179;DHT22;71287;48.414;11.478;2023-08-21T05:57:56;32.40;89.40
9179;DHT22;71287;48.414;11.478;2023-08-21T06:00:25;32.90;85.80
9179;DHT22;71287;48.414;11.478;2023-08-21T06:02:51;33.30;82.60
9179;DHT22;71287;48.414;11.478;2023-08-21T06:05:18;33.90;79.90
9179;DHT22;71287;48.414;11.478;2023-08-21T06:07:45;34.40;76.00
9179;DHT22;71287;48.414;11.478;2023-08-21T06:10:12;34.90;73.40
9179;DHT22;71287;48.414;11.478;2023-08-21T06:12:41;35.20;70.80
9179;DHT22;71287;48.414;11.478;2023-08-21T06:15:09;35.70;68.70
9179;DHT22;71287;48.414;11.478;2023-08-21T06:17:38;36.20;65.70
9179;DHT22;71287;48.414;11.478;2023-08-21T06:20:06;36.70;63.50
9179;DHT22;71287;48.414;11.478;2023-08-21T06:22:34;37.30;61.80
9179;DHT22;71287;48.414;11.478;2023-08-21T06:25:01;37.60;59.00
9179;DHT22;71287;48.414;11.478;2023-08-21T06:27:28;38.10;58.00
9179;DHT22;71287;48.414;11.478;2023-08-21T06:29:54;38.40;56.70
9179;DHT22;71287;48.414;11.478;2023-08-21T06:32:21;38.10;55.80
9179;DHT22;71287;48.414;11.478;2023-08-21T06:34:49;37.30;56.50
9179;DHT22;71287;48.414;11.478;2023-08-21T06:37:16;37.60;56.80
9179;DHT22;71287;48.414;11.478;2023-08-21T06:39:43;38.30;55.30
9179;DHT22;71287;48.414;11.478;2023-08-21T06:42:09;38.70;54.30
9179;DHT22;71287;48.414;11.478;2023-08-21T06:44:36;39.40;53.50
9179;DHT22;71287;48.414;11.478;2023-08-21T06:47:03;40.20;52.20
9179;DHT22;71287;48.414;11.478;2023-08-21T06:49:30;41.00;50.20
9179;DHT22;71287;48.414;11.478;2023-08-21T06:51:58;41.00;49.10
9179;DHT22;71287;48.414;11.478;2023-08-21T06:54:25;41.00;49.00
9179;DHT22;71287;48.414;11.478;2023-08-21T06:56:52;41.50;48.40
9179;DHT22;71287;48.414;11.478;2023-08-21T06:59:18;42.30;47.20
9179;DHT22;71287;48.414;11.478;2023-08-21T07:01:45;43.10;46.00
9179;DHT22;71287;48.414;11.478;2023-08-21T07:04:12;44.00;44.80
9179;DHT22;71287;48.414;11.478;2023-08-21T07:06:39;44.80;43.60
9179;DHT22;71287;48.414;11.478;2023-08-21T07:09:07;45.80;41.60
9179;DHT22;71287;48.414;11.478;2023-08-21T07:11:34;46.50;40.70
9179;DHT22;71287;48.414;11.478;2023-08-21T07:14:01;46.70;38.90
9179;DHT22;71287;48.414;11.478;2023-08-21T07:16:28;47.20;39.20
9179;DHT22;71287;48.414;11.478;2023-08-21T07:18:55;47.70;38.60
9179;DHT22;71287;48.414;11.478;2023-08-21T07:21:21;47.90;37.50
9179;DHT22;71287;48.414;11.478;2023-08-21T07:23:48;48.10;37.30
9179;DHT22;71287;48.414;11.478;2023-08-21T07:26:16;48.70;36.60
9179;DHT22;71287;48.414;11.478;2023-08-21T07:28:43;49.30;36.30
9179;DHT22;71287;48.414;11.478;2023-08-21T07:31:10;49.70;35.60
9179;DHT22;71287;48.414;11.478;2023-08-21T07:33:37;50.10;35.30
9179;DHT22;71287;48.414;11.478;2023-08-21T07:36:05;50.30;34.80
9179;DHT22;71287;48.414;11.478;2023-08-21T07:38:32;50.40;34.20
9179;DHT22;71287;48.414;11.478;2023-08-21T07:41:03;50.50;33.70
9179;DHT22;71287;48.414;11.478;2023-08-21T07:43:32;50.60;33.30
9179;DHT22;71287;48.414;11.478;2023-08-21T07:46:02;50.60;33.50
9179;DHT22;71287;48.414;11.478;2023-08-21T07:48:29;50.30;34.10
9179;DHT22;71287;48.414;11.478;2023-08-21T07:50:56;49.60;34.20
9179;DHT22;71287;48.414;11.478;2023-08-21T07:53:23;49.00;34.80
9179;DHT22;71287;48.414;11.478;2023-08-21T07:55:50;48.80;35.60
9179;DHT22;71287;48.414;11.478;2023-08-21T07:58:17;49.20;35.10
9179;DHT22;71287;48.414;11.478;2023-08-21T08:00:45;49.60;34.40
9179;DHT22;71287;48.414;11.478;2023-08-21T08:03:13;50.00;34.30
9179;DHT22;71287;48.414;11.478;2023-08-21T08:05:40;50.60;33.20
9179;DHT22;71287;48.414;11.478;2023-08-21T08:08:07;51.00;31.60
9179;DHT22;71287;48.414;11.478;2023-08-21T08:10:37;51.30;31.30
9179;DHT22;71287;48.414;11.478;2023-08-21T08:13:03;51.40;31.00
9179;DHT22;71287;48.414;11.478;2023-08-21T08:15:30;51.30;30.50
9179;DHT22;71287;48.414;11.478;2023-08-21T08:17:58;50.60;30.10
9179;DHT22;71287;48.414;11.478;2023-08-21T08:20:25;49.90;30.60
9179;DHT22;71287;48.414;11.478;2023-08-21T08:22:52;49.30;31.50
9179;DHT22;71287;48.414;11.478;2023-08-21T08:25:19;48.40;32.80
9179;DHT22;71287;48.414;11.478;2023-08-21T08:27:46;47.30;34.00
9179;DHT22;71287;48.414;11.478;2023-08-21T08:30:13;46.10;35.60
9179;DHT22;71287;48.414;11.478;2023-08-21T08:32:40;45.10;36.90
9179;DHT22;71287;48.414;11.478;2023-08-21T08:35:12;44.00;38.50
9179;DHT22;71287;48.414;11.478;2023-08-21T08:37:39;43.20;39.40
9179;DHT22;71287;48.414;11.478;2023-08-21T08:40:07;42.50;40.30
9179;DHT22;71287;48.414;11.478;2023-08-21T08:42:34;41.90;40.70
9179;DHT22;71287;48.414;11.478;2023-08-21T08:45:03;41.40;41.60
9179;DHT22;71287;48.414;11.478;2023-08-21T08:47:32;40.90;42.20
9179;DHT22;71287;48.414;11.478;2023-08-21T08:50:01;40.40;43.90
9179;DHT22;71287;48.414;11.478;2023-08-21T08:52:32;40.10;44.10
9179;DHT22;71287;48.414;11.478;2023-08-21T08:55:00;39.70;43.90
9179;DHT22;71287;48.414;11.478;2023-08-21T08:57:27;39.50;44.60
9179;DHT22;71287;48.414;11.478;2023-08-21T08:59:54;39.20;45.90
9179;DHT22;71287;48.414;11.478;2023-08-21T09:02:21;39.00;46.60
9179;DHT22;71287;48.414;11.478;2023-08-21T09:04:48;38.80;47.10
9179;DHT22;71287;48.414;11.478;2023-08-21T09:07:17;38.50;48.00
9179;DHT22;71287;48.414;11.478;2023-08-21T09:09:48;38.20;47.70
9179;DHT22;71287;48.414;11.478;2023-08-21T09:12:16;38.00;47.90
9179;DHT22;71287;48.414;11.478;2023-08-21T09:14:44;37.80;48.00
9179;DHT22;71287;48.414;11.478;2023-08-21T09:17:11;37.80;48.70
9179;DHT22;71287;48.414;11.478;2023-08-21T09:19:39;37.80;49.30
9179;DHT22;71287;48.414;11.478;2023-08-21T09:22:09;37.90;49.60
9179;DHT22;71287;48.414;11.478;2023-08-21T09:24:37;37.90;49.60
9179;DHT22;71287;48.414;11.478;2023-08-21T09:27:13;37.90;48.40
9179;DHT22;71287;48.414;11.478;2023-08-21T09:29:41;37.90;48.20
9179;DHT22;71287;48.414;11.478;2023-08-21T09:32:08;37.70;48.30
9179;DHT22;71287;48.414;11.478;2023-08-21T09:34:35;37.70;49.60
9179;DHT22;71287;48.414;11.478;2023-08-21T09:37:05;37.50;48.20
9179;DHT22;71287;48.414;11.478;2023-08-21T09:39:34;37.60;48.90
9179;DHT22;71287;48.414;11.478;2023-08-21T09:42:01;37.50;49.70
9179;DHT22;71287;48.414;11.478;2023-08-21T09:44:37;37.40;50.60
9179;DHT22;71287;48.414;11.478;2023-08-21T09:47:04;37.40;50.70
9179;DHT22;71287;48.414;11.478;2023-08-21T09:49:34;37.50;50.70
9179;DHT22;71287;48.414;11.478;2023-08-21T09:52:03;37.40;49.90
9179;DHT22;71287;48.414;11.478;2023-08-21T09:54:30;37.50;50.40
9179;DHT22;71287;48.414;11.478;2023-08-21T09:57:01;37.30;50.60
9179;DHT22;71287;48.414;11.478;2023-08-21T09:59:29;37.20;51.40
9179;DHT22;71287;48.414;11.478;2023-08-21T10:01:58;37.30;52.20
9179;DHT22;71287;48.414;11.478;2023-08-21T10:04:27;37.30;51.20
9179;DHT22;71287;48.414;11.478;2023-08-21T10:06:55;37.40;51.10
9179;DHT22;71287;48.414;11.478;2023-08-21T10:09:23;37.30;51.30
9179;DHT22;71287;48.414;11.478;2023-08-21T10:11:52;37.30;50.90
9179;DHT22;71287;48.414;11.478;2023-08-21T10:14:21;37.30;49.60
9179;DHT22;71287;48.414;11.478;2023-08-21T10:16:48;37.20;50.10
9179;DHT22;71287;48.414;11.478;2023-08-21T10:19:17;37.10;50.70
9179;DHT22;71287;48.414;11.478;2023-08-21T10:21:47;37.10;51.20
9179;DHT22;71287;48.414;11.478;2023-08-21T10:24:26;37.10;50.40
9179;DHT22;71287;48.414;11.478;2023-08-21T10:26:54;37.00;50.00
9179;DHT22;71287;48.414;11.478;2023-08-21T10:29:21;36.80;48.90
9179;DHT22;71287;48.414;11.478;2023-08-21T10:31:58;36.70;50.00
9179;DHT22;71287;48.414;11.478;2023-08-21T10:34:32;36.70;50.60
9179;DHT22;71287;48.414;11.478;2023-08-21T10:37:09;36.80;51.20
9179;DHT22;71287;48.414;11.478;2023-08-21T10:39:38;36.80;51.70
9179;DHT22;71287;48.414;11.478;2023-08-21T10:42:07;36.90;50.40
9179;DHT22;71287;48.414;11.478;2023-08-21T10:44:35;36.90;48.90
9179;DHT22;71287;48.414;11.478;2023-08-21T10:47:16;36.90;50.00
9179;DHT22;71287;48.414;11.478;2023-08-21T10:49:46;36.90;51.60
9179;DHT22;71287;48.414;11.478;2023-08-21T10:52:13;37.00;51.60
9179;DHT22;71287;48.414;11.478;2023-08-21T10:54:48;37.00;49.00
9179;DHT22;71287;48.414;11.478;2023-08-21T10:57:15;36.90;50.10
9179;DHT22;71287;48.414;11.478;2023-08-21T10:59:52;36.90;50.10
9179;DHT22;71287;48.414;11.478;2023-08-21T11:02:19;36.90;49.60
9179;DHT22;71287;48.414;11.478;2023-08-21T11:04:48;36.90;49.80
9179;DHT22;71287;48.414;11.478;2023-08-21T11:07:15;36.90;50.00
9179;DHT22;71287;48.414;11.478;2023-08-21T11:09:42;37.00;49.40
9179;DHT22;71287;48.414;11.478;2023-08-21T11:12:11;37.10;49.10
9179;DHT22;71287;48.414;11.478;2023-08-21T11:14:38;37.00;48.30
9179;DHT22;71287;48.414;11.478;2023-08-21T11:17:05;36.90;47.00
9179;DHT22;71287;48.414;11.478;2023-08-21T11:19:32;36.90;46.70
9179;DHT22;71287;48.414;11.478;2023-08-21T11:22:01;36.80;47.30
9179;DHT22;71287;48.414;11.478;2023-08-21T11:24:31;36.80;46.60
9179;DHT22;71287;48.414;11.478;2023-08-21T11:26:58;36.80;47.30
9179;DHT22;71287;48.414;11.478;2023-08-21T11:29:25;36.80;47.20
9179;DHT22;71287;48.414;11.478;2023-08-21T11:31:52;36.80;48.00
9179;DHT22;71287;48.414;11.478;2023-08-21T11:34:19;36.90;48.30
9179;DHT22;71287;48.414;11.478;2023-08-21T11:36:47;36.90;48.20
9179;DHT22;71287;48.414;11.478;2023-08-21T11:39:16;36.70;46.50
9179;DHT22;71287;48.414;11.478;2023-08-21T11:41:55;36.60;47.20
9179;DHT22;71287;48.414;11.478;2023-08-21T11:44:23;36.50;48.80
9179;DHT22;71287;48.414;11.478;2023-08-21T11:46:51;36.70;47.80
9179;DHT22;71287;48.414;11.478;2023-08-21T11:49:19;36.70;48.90
9179;DHT22;71287;48.414;11.478;2023-08-21T11:51:48;36.70;47.60
9179;DHT22;71287;48.414;11.478;2023-08-21T11:54:18;36.60;48.40
9179;DHT22;71287;48.414;11.478;2023-08-21T11:56:46;36.60;49.50
9179;DHT22;71287;48.414;11.478;2023-08-21T11:59:21;36.60;48.80
9179;DHT22;71287;48.414;11.478;2023-08-21T12:01:50;36.60;49.20
9179;DHT22;71287;48.414;11.478;2023-08-21T12:04:17;36.50;50.60
9179;DHT22;71287;48.414;11.478;2023-08-21T12:06:44;36.40;49.10
9179;DHT22;71287;48.414;11.478;2023-08-21T12:09:11;36.30;50.70
9179;DHT22;71287;48.414;11.478;2023-08-21T12:11:39;36.30;50.40
9179;DHT22;71287;48.414;11.478;2023-08-21T12:14:06;36.30;49.90
9179;DHT22;71287;48.414;11.478;2023-08-21T12:16:33;36.30;49.10
9179;DHT22;71287;48.414;11.478;2023-08-21T12:19:00;36.10;50.20
9179;DHT22;71287;48.414;11.478;2023-08-21T12:21:28;36.20;51.10
9179;DHT22;71287;48.414;11.478;2023-08-21T12:23:56;36.20;49.60
9179;DHT22;71287;48.414;11.478;2023-08-21T12:26:23;36.30;50.50
9179;DHT22;71287;48.414;11.478;2023-08-21T12:28:51;36.40;50.70
9179;DHT22;71287;48.414;11.478;2023-08-21T12:31:18;36.40;49.20
9179;DHT22;71287;48.414;11.478;2023-08-21T12:33:44;36.40;48.70
9179;DHT22;71287;48.414;11.478;2023-08-21T12:36:11;36.30;49.40
9179;DHT22;71287;48.414;11.478;2023-08-21T12:38:38;36.20;51.10
9179;DHT22;71287;48.414;11.478;2023-08-21T12:41:05;36.10;50.50
9179;DHT22;71287;48.414;11.478;2023-08-21T12:43:31;36.10;49.80
9179;DHT22;71287;48.414;11.478;2023-08-21T12:46:00;36.10;49.20
9179;DHT22;71287;48.414;11.478;2023-08-21T12:48:26;36.00;49.90
9179;DHT22;71287;48.414;11.478;2023-08-21T12:50:53;36.00;50.90
9179;DHT22;71287;48.414;11.478;2023-08-21T12:53:20;36.00;49.30
9179;DHT22;71287;48.414;11.478;2023-08-21T12:55:47;36.00;50.40
9179;DHT22;71287;48.414;11.478;2023-08-21T12:58:14;36.10;50.30
9179;DHT22;71287;48.414;11.478;2023-08-21T13:00:41;36.00;50.00
9179;DHT22;71287;48.414;11.478;2023-08-21T13:03:09;36.00;50.00
9179;DHT22;71287;48.414;11.478;2023-08-21T13:05:36;36.00;50.00
9179;DHT22;71287;48.414;11.478;2023-08-21T13:08:03;36.00;49.30
9179;DHT22;71287;48.414;11.478;2023-08-21T13:10:30;35.90;50.40
9179;DHT22;71287;48.414;11.478;2023-08-21T13:12:57;35.90;49.40
9179;DHT22;71287;48.414;11.478;2023-08-21T13:15:23;35.80;50.90
9179;DHT22;71287;48.414;11.478;2023-08-21T13:17:50;35.70;49.90
9179;DHT22;71287;48.414;11.478;2023-08-21T13:20:18;35.70;50.80
9179;DHT22;71287;48.414;11.478;2023-08-21T13:22:46;35.60;50.50
9179;DHT22;71287;48.414;11.478;2023-08-21T13:25:14;35.40;51.40
9179;DHT22;71287;48.414;11.478;2023-08-21T13:27:41;35.30;50.90
9179;DHT22;71287;48.414;11.478;2023-08-21T13:30:09;35.20;51.40
9179;DHT22;71287;48.414;11.478;2023-08-21T13:32:36;35.30;52.20
9179;DHT22;71287;48.414;11.478;2023-08-21T13:35:03;35.30;53.30
9179;DHT22;71287;48.414;11.478;2023-08-21T13:37:34;35.30;51.70
9179;DHT22;71287;48.414;11.478;2023-08-21T13:40:01;35.30;50.90
9179;DHT22;71287;48.414;11.478;2023-08-21T13:42:35;35.30;51.90
9179;DHT22;71287;48.414;11.478;2023-08-21T13:45:03;35.30;53.00
9179;DHT22;71287;48.414;11.478;2023-08-21T13:47:31;35.30;52.40
9179;DHT22;71287;48.414;11.478;2023-08-21T13:49:57;35.30;52.00
9179;DHT22;71287;48.414;11.478;2023-08-21T13:52:24;35.30;51.00
9179;DHT22;71287;48.414;11.478;2023-08-21T13:54:52;35.20;51.90
9179;DHT22;71287;48.414;11.478;2023-08-21T13:57:19;35.20;50.90
9179;DHT22;71287;48.414;11.478;2023-08-21T13:59:46;35.00;50.80
9179;DHT22;71287;48.414;11.478;2023-08-21T14:02:13;34.80;50.30
9179;DHT22;71287;48.414;11.478;2023-08-21T14:04:40;34.70;50.80
9179;DHT22;71287;48.414;11.478;2023-08-21T14:07:06;34.60;50.70
9179;DHT22;71287;48.414;11.478;2023-08-21T14:09:33;34.70;51.80
9179;DHT22;71287;48.414;11.478;2023-08-21T14:12:03;34.60;53.20
9179;DHT22;71287;48.414;11.478;2023-08-21T14:14:30;34.70;52.60
9179;DHT22;71287;48.414;11.478;2023-08-21T14:16:57;34.80;53.10
9179;DHT22;71287;48.414;11.478;2023-08-21T14:19:24;34.70;51.10
9179;DHT22;71287;48.414;11.478;2023-08-21T14:21:50;34.60;51.40
9179;DHT22;71287;48.414;11.478;2023-08-21T14:24:17;34.60;51.80
9179;DHT22;71287;48.414;11.478;2023-08-21T14:26:44;34.50;53.30
9179;DHT22;71287;48.414;11.478;2023-08-21T14:29:12;34.50;52.80
9179;DHT22;71287;48.414;11.478;2023-08-21T14:31:39;34.50;52.10
9179;DHT22;71287;48.414;11.478;2023-08-21T14:34:06;34.40;51.10
9179;DHT22;71287;48.414;11.478;2023-08-21T14:36:32;34.40;51.00
9179;DHT22;71287;48.414;11.478;2023-08-21T14:38:59;34.40;51.90
9179;DHT22;71287;48.414;11.478;2023-08-21T14:41:27;34.40;52.90
9179;DHT22;71287;48.414;11.478;2023-08-21T14:43:53;34.40;53.00
9179;DHT22;71287;48.414;11.478;2023-08-21T14:46:21;34.30;51.70
9179;DHT22;71287;48.414;11.478;2023-08-21T14:48:48;34.20;52.60
9179;DHT22;71287;48.414;11.478;2023-08-21T14:51:15;34.10;52.30
9179;DHT22;71287;48.414;11.478;2023-08-21T14:53:42;33.90;52.30
9179;DHT22;71287;48.414;11.478;2023-08-21T14:56:08;33.80;52.10
9179;DHT22;71287;48.414;11.478;2023-08-21T14:58:35;33.80;52.60
9179;DHT22;71287;48.414;11.478;2023-08-21T15:01:02;33.70;52.90
9179;DHT22;71287;48.414;11.478;2023-08-21T15:03:31;33.60;52.50
9179;DHT22;71287;48.414;11.478;2023-08-21T15:05:58;33.50;53.80
9179;DHT22;71287;48.414;11.478;2023-08-21T15:08:24;33.50;53.50
9179;DHT22;71287;48.414;11.478;2023-08-21T15:10:51;33.60;53.70
9179;DHT22;71287;48.414;11.478;2023-08-21T15:13:18;33.60;54.00
9179;DHT22;71287;48.414;11.478;2023-08-21T15:15:45;33.60;54.30
9179;DHT22;71287;48.414;11.478;2023-08-21T15:18:12;33.60;55.10
9179;DHT22;71287;48.414;11.478;2023-08-21T15:20:40;33.60;54.60
9179;DHT22;71287;48.414;11.478;2023-08-21T15:23:07;33.60;53.60
9179;DHT22;71287;48.414;11.478;2023-08-21T15:25:33;33.60;54.10
9179;DHT22;71287;48.414;11.478;2023-08-21T15:28:00;33.50;54.20
9179;DHT22;71287;48.414;11.478;2023-08-21T15:30:27;33.50;53.70
9179;DHT22;71287;48.414;11.478;2023-08-21T15:32:54;33.40;55.00